Bay Port, New York
Current Conditions -  °F | °C
As of 11:31 AM on Friday 24 Oct 2014 (Local Time) from KISP Reporting Station
Overcast Overcast  
Wind Chill: 53°   Ceiling: 2200
Heat Index: 53°   Visibility: 10mi
Dew Point: 48°   Wind: 16mph
Humidity: 83%   Direction: 320°NW
Pressure: 29.77"   Gusts: 23mph
Location:  40.746°N, 73.0539°W
Report Text: KISP 241531Z 32014G20KT 10SM FEW015 BKN022 OVC150 12/09 A2977 RMK AO2 RAE19 P0000 T01170089
Loading
Personal Weather Stations






























Interactive Weather Map
Tropical Storm Tracking
New forecast layout! Learn more

10-Day Weather Forecast

Advertisements
Track Severe Weather on mobile